sensor_id;sensor_type;location;lat;lon;timestamp;P1;durP1;ratioP1;P2;durP2;ratioP2
59066;SDS011;44854;50.838;4.438;2023-12-07T00:00:50;55.72;;;25.40;;
59066;SDS011;44854;50.838;4.438;2023-12-07T00:03:17;64.00;;;24.52;;
59066;SDS011;44854;50.838;4.438;2023-12-07T00:05:44;69.07;;;25.95;;
59066;SDS011;44854;50.838;4.438;2023-12-07T00:08:10;62.78;;;24.98;;
59066;SDS011;44854;50.838;4.438;2023-12-07T00:10:36;62.63;;;26.50;;
59066;SDS011;44854;50.838;4.438;2023-12-07T00:13:02;62.90;;;25.92;;
59066;SDS011;44854;50.838;4.438;2023-12-07T00:15:27;57.83;;;26.17;;
59066;SDS011;44854;50.838;4.438;2023-12-07T00:17:53;67.72;;;26.48;;
59066;SDS011;44854;50.838;4.438;2023-12-07T00:20:19;65.00;;;26.85;;
59066;SDS011;44854;50.838;4.438;2023-12-07T00:22:44;64.10;;;26.98;;
59066;SDS011;44854;50.838;4.438;2023-12-07T00:25:10;65.55;;;27.38;;
59066;SDS011;44854;50.838;4.438;2023-12-07T00:27:36;63.38;;;26.45;;
59066;SDS011;44854;50.838;4.438;2023-12-07T00:30:02;62.53;;;25.75;;
59066;SDS011;44854;50.838;4.438;2023-12-07T00:32:28;64.22;;;25.48;;
59066;SDS011;44854;50.838;4.438;2023-12-07T00:34:54;57.80;;;24.13;;
59066;SDS011;44854;50.838;4.438;2023-12-07T00:37:20;62.58;;;25.52;;
59066;SDS011;44854;50.838;4.438;2023-12-07T00:39:46;57.28;;;25.23;;
59066;SDS011;44854;50.838;4.438;2023-12-07T00:42:12;57.33;;;24.73;;
59066;SDS011;44854;50.838;4.438;2023-12-07T00:44:39;57.30;;;25.02;;
59066;SDS011;44854;50.838;4.438;2023-12-07T00:47:05;53.47;;;23.17;;
59066;SDS011;44854;50.838;4.438;2023-12-07T00:49:31;56.25;;;24.38;;
59066;SDS011;44854;50.838;4.438;2023-12-07T00:51:57;50.58;;;22.40;;
59066;SDS011;44854;50.838;4.438;2023-12-07T00:54:22;51.05;;;23.40;;
59066;SDS011;44854;50.838;4.438;2023-12-07T00:56:48;52.95;;;25.00;;
59066;SDS011;44854;50.838;4.438;2023-12-07T00:59:14;53.92;;;23.83;;
59066;SDS011;44854;50.838;4.438;2023-12-07T01:01:39;53.03;;;22.20;;
59066;SDS011;44854;50.838;4.438;2023-12-07T01:04:05;55.72;;;25.33;;
59066;SDS011;44854;50.838;4.438;2023-12-07T01:06:31;52.67;;;24.13;;
59066;SDS011;44854;50.838;4.438;2023-12-07T01:08:57;57.25;;;24.52;;
59066;SDS011;44854;50.838;4.438;2023-12-07T01:11:23;52.72;;;23.30;;
59066;SDS011;44854;50.838;4.438;2023-12-07T01:13:48;47.88;;;22.38;;
59066;SDS011;44854;50.838;4.438;2023-12-07T01:16:14;51.35;;;23.58;;
59066;SDS011;44854;50.838;4.438;2023-12-07T01:18:40;57.08;;;24.15;;
59066;SDS011;44854;50.838;4.438;2023-12-07T01:21:05;56.13;;;23.00;;
59066;SDS011;44854;50.838;4.438;2023-12-07T01:23:31;52.55;;;23.88;;
59066;SDS011;44854;50.838;4.438;2023-12-07T01:25:57;44.28;;;22.17;;
59066;SDS011;44854;50.838;4.438;2023-12-07T01:28:23;56.10;;;23.40;;
59066;SDS011;44854;50.838;4.438;2023-12-07T01:30:48;55.03;;;24.05;;
59066;SDS011;44854;50.838;4.438;2023-12-07T01:33:14;53.75;;;23.17;;
59066;SDS011;44854;50.838;4.438;2023-12-07T01:35:40;49.85;;;23.15;;
59066;SDS011;44854;50.838;4.438;2023-12-07T01:38:06;49.88;;;23.17;;
59066;SDS011;44854;50.838;4.438;2023-12-07T01:40:31;50.17;;;24.15;;
59066;SDS011;44854;50.838;4.438;2023-12-07T01:42:57;55.88;;;24.90;;
59066;SDS011;44854;50.838;4.438;2023-12-07T01:45:23;49.67;;;22.50;;
59066;SDS011;44854;50.838;4.438;2023-12-07T01:47:49;49.33;;;23.77;;
59066;SDS011;44854;50.838;4.438;2023-12-07T01:50:16;50.13;;;23.80;;
59066;SDS011;44854;50.838;4.438;2023-12-07T01:52:48;50.00;;;23.67;;
59066;SDS011;44854;50.838;4.438;2023-12-07T01:55:17;48.28;;;24.33;;
59066;SDS011;44854;50.838;4.438;2023-12-07T01:57:44;52.70;;;24.25;;
59066;SDS011;44854;50.838;4.438;2023-12-07T02:00:10;50.47;;;23.90;;
59066;SDS011;44854;50.838;4.438;2023-12-07T02:02:37;53.00;;;24.73;;
59066;SDS011;44854;50.838;4.438;2023-12-07T02:05:04;44.50;;;21.98;;
59066;SDS011;44854;50.838;4.438;2023-12-07T02:07:30;45.90;;;23.50;;
59066;SDS011;44854;50.838;4.438;2023-12-07T02:09:56;47.80;;;23.05;;
59066;SDS011;44854;50.838;4.438;2023-12-07T02:12:23;46.45;;;23.73;;
59066;SDS011;44854;50.838;4.438;2023-12-07T02:14:50;44.42;;;23.38;;
59066;SDS011;44854;50.838;4.438;2023-12-07T02:17:26;42.63;;;21.98;;
59066;SDS011;44854;50.838;4.438;2023-12-07T02:22:49;39.13;;;21.60;;
59066;SDS011;44854;50.838;4.438;2023-12-07T02:25:21;41.33;;;22.40;;
59066;SDS011;44854;50.838;4.438;2023-12-07T02:27:49;38.92;;;20.50;;
59066;SDS011;44854;50.838;4.438;2023-12-07T02:30:15;42.58;;;21.45;;
59066;SDS011;44854;50.838;4.438;2023-12-07T02:32:43;42.28;;;21.85;;
59066;SDS011;44854;50.838;4.438;2023-12-07T02:35:10;46.03;;;22.13;;
59066;SDS011;44854;50.838;4.438;2023-12-07T02:40:10;41.17;;;19.65;;
59066;SDS011;44854;50.838;4.438;2023-12-07T02:42:39;36.65;;;20.60;;
59066;SDS011;44854;50.838;4.438;2023-12-07T02:45:08;40.78;;;20.13;;
59066;SDS011;44854;50.838;4.438;2023-12-07T02:47:35;38.40;;;21.00;;
59066;SDS011;44854;50.838;4.438;2023-12-07T02:50:01;40.42;;;22.02;;
59066;SDS011;44854;50.838;4.438;2023-12-07T02:52:30;39.28;;;20.23;;
59066;SDS011;44854;50.838;4.438;2023-12-07T02:54:56;43.95;;;20.90;;
59066;SDS011;44854;50.838;4.438;2023-12-07T02:57:22;45.78;;;21.90;;
59066;SDS011;44854;50.838;4.438;2023-12-07T02:59:47;39.42;;;19.67;;
59066;SDS011;44854;50.838;4.438;2023-12-07T03:02:13;40.08;;;19.35;;
59066;SDS011;44854;50.838;4.438;2023-12-07T03:04:39;37.15;;;21.38;;
59066;SDS011;44854;50.838;4.438;2023-12-07T03:07:04;35.72;;;20.58;;
59066;SDS011;44854;50.838;4.438;2023-12-07T03:09:30;40.15;;;22.73;;
59066;SDS011;44854;50.838;4.438;2023-12-07T03:11:56;41.58;;;21.88;;
59066;SDS011;44854;50.838;4.438;2023-12-07T03:14:21;37.03;;;19.77;;
59066;SDS011;44854;50.838;4.438;2023-12-07T03:16:47;42.17;;;20.98;;
59066;SDS011;44854;50.838;4.438;2023-12-07T03:19:13;40.67;;;20.48;;
59066;SDS011;44854;50.838;4.438;2023-12-07T03:21:39;39.00;;;20.95;;
59066;SDS011;44854;50.838;4.438;2023-12-07T03:24:06;40.38;;;21.00;;
59066;SDS011;44854;50.838;4.438;2023-12-07T03:26:33;36.72;;;19.38;;
59066;SDS011;44854;50.838;4.438;2023-12-07T03:28:59;35.20;;;19.60;;
59066;SDS011;44854;50.838;4.438;2023-12-07T03:31:24;40.85;;;21.42;;
59066;SDS011;44854;50.838;4.438;2023-12-07T03:33:50;39.38;;;21.08;;
59066;SDS011;44854;50.838;4.438;2023-12-07T03:36:16;40.85;;;20.42;;
59066;SDS011;44854;50.838;4.438;2023-12-07T03:38:42;40.47;;;21.90;;
59066;SDS011;44854;50.838;4.438;2023-12-07T03:41:07;39.45;;;20.38;;
59066;SDS011;44854;50.838;4.438;2023-12-07T03:43:33;42.78;;;22.55;;
59066;SDS011;44854;50.838;4.438;2023-12-07T03:45:59;42.78;;;22.50;;
59066;SDS011;44854;50.838;4.438;2023-12-07T03:48:25;37.33;;;19.38;;
59066;SDS011;44854;50.838;4.438;2023-12-07T03:50:50;38.22;;;20.45;;
59066;SDS011;44854;50.838;4.438;2023-12-07T03:53:16;39.85;;;20.88;;
59066;SDS011;44854;50.838;4.438;2023-12-07T03:55:42;38.60;;;19.55;;
59066;SDS011;44854;50.838;4.438;2023-12-07T03:58:07;33.67;;;19.65;;
59066;SDS011;44854;50.838;4.438;2023-12-07T04:00:33;40.67;;;20.15;;
59066;SDS011;44854;50.838;4.438;2023-12-07T04:02:59;35.17;;;20.25;;
59066;SDS011;44854;50.838;4.438;2023-12-07T04:05:24;41.25;;;21.08;;
59066;SDS011;44854;50.838;4.438;2023-12-07T04:07:50;30.60;;;19.35;;
59066;SDS011;44854;50.838;4.438;2023-12-07T04:10:16;30.35;;;19.15;;
59066;SDS011;44854;50.838;4.438;2023-12-07T04:12:41;34.83;;;20.25;;
59066;SDS011;44854;50.838;4.438;2023-12-07T04:15:07;29.27;;;17.77;;
59066;SDS011;44854;50.838;4.438;2023-12-07T04:17:33;30.52;;;18.23;;
59066;SDS011;44854;50.838;4.438;2023-12-07T04:19:59;32.40;;;18.98;;
59066;SDS011;44854;50.838;4.438;2023-12-07T04:22:25;31.48;;;18.33;;
59066;SDS011;44854;50.838;4.438;2023-12-07T04:24:50;35.67;;;19.13;;
59066;SDS011;44854;50.838;4.438;2023-12-07T04:27:16;31.42;;;17.95;;
59066;SDS011;44854;50.838;4.438;2023-12-07T04:29:42;37.25;;;18.60;;
59066;SDS011;44854;50.838;4.438;2023-12-07T04:32:07;35.15;;;18.08;;
59066;SDS011;44854;50.838;4.438;2023-12-07T04:34:33;32.00;;;18.15;;
59066;SDS011;44854;50.838;4.438;2023-12-07T04:36:59;34.95;;;18.10;;
59066;SDS011;44854;50.838;4.438;2023-12-07T04:39:25;32.20;;;18.42;;
59066;SDS011;44854;50.838;4.438;2023-12-07T04:41:50;34.75;;;18.70;;
59066;SDS011;44854;50.838;4.438;2023-12-07T04:44:16;33.22;;;19.10;;
59066;SDS011;44854;50.838;4.438;2023-12-07T04:46:42;36.45;;;18.45;;
59066;SDS011;44854;50.838;4.438;2023-12-07T04:49:08;34.30;;;19.00;;
59066;SDS011;44854;50.838;4.438;2023-12-07T04:51:34;35.47;;;20.83;;
59066;SDS011;44854;50.838;4.438;2023-12-07T04:53:59;32.50;;;17.90;;
59066;SDS011;44854;50.838;4.438;2023-12-07T04:56:25;34.47;;;17.75;;
59066;SDS011;44854;50.838;4.438;2023-12-07T04:58:51;33.45;;;18.25;;
59066;SDS011;44854;50.838;4.438;2023-12-07T05:01:16;32.13;;;18.25;;
59066;SDS011;44854;50.838;4.438;2023-12-07T05:03:44;30.27;;;17.92;;
59066;SDS011;44854;50.838;4.438;2023-12-07T05:06:10;32.30;;;18.38;;
59066;SDS011;44854;50.838;4.438;2023-12-07T05:08:35;32.40;;;17.75;;
59066;SDS011;44854;50.838;4.438;2023-12-07T05:11:01;28.88;;;15.63;;
59066;SDS011;44854;50.838;4.438;2023-12-07T05:13:27;28.65;;;16.58;;
59066;SDS011;44854;50.838;4.438;2023-12-07T05:15:53;30.60;;;15.85;;
59066;SDS011;44854;50.838;4.438;2023-12-07T05:18:18;31.02;;;17.00;;
59066;SDS011;44854;50.838;4.438;2023-12-07T05:20:44;29.17;;;15.88;;
59066;SDS011;44854;50.838;4.438;2023-12-07T05:23:10;28.38;;;16.65;;
59066;SDS011;44854;50.838;4.438;2023-12-07T05:25:35;30.60;;;16.90;;
59066;SDS011;44854;50.838;4.438;2023-12-07T05:28:01;37.92;;;16.75;;
59066;SDS011;44854;50.838;4.438;2023-12-07T05:30:27;27.15;;;16.58;;
59066;SDS011;44854;50.838;4.438;2023-12-07T05:32:53;26.65;;;16.63;;
59066;SDS011;44854;50.838;4.438;2023-12-07T05:35:19;29.70;;;16.55;;
59066;SDS011;44854;50.838;4.438;2023-12-07T05:37:45;30.52;;;16.42;;
59066;SDS011;44854;50.838;4.438;2023-12-07T05:40:11;33.38;;;17.20;;
59066;SDS011;44854;50.838;4.438;2023-12-07T05:42:37;32.55;;;16.95;;
59066;SDS011;44854;50.838;4.438;2023-12-07T05:45:03;29.98;;;16.15;;
59066;SDS011;44854;50.838;4.438;2023-12-07T05:47:31;28.58;;;17.27;;
59066;SDS011;44854;50.838;4.438;2023-12-07T05:49:58;28.88;;;16.40;;
59066;SDS011;44854;50.838;4.438;2023-12-07T05:52:25;28.55;;;17.25;;
59066;SDS011;44854;50.838;4.438;2023-12-07T05:54:50;32.28;;;16.77;;
59066;SDS011;44854;50.838;4.438;2023-12-07T05:57:16;28.33;;;16.08;;
59066;SDS011;44854;50.838;4.438;2023-12-07T05:59:42;28.02;;;15.88;;
59066;SDS011;44854;50.838;4.438;2023-12-07T06:02:08;30.40;;;16.67;;
59066;SDS011;44854;50.838;4.438;2023-12-07T06:04:34;30.92;;;16.80;;
59066;SDS011;44854;50.838;4.438;2023-12-07T06:07:00;26.73;;;16.77;;
59066;SDS011;44854;50.838;4.438;2023-12-07T06:09:25;33.35;;;17.10;;
59066;SDS011;44854;50.838;4.438;2023-12-07T06:11:51;26.85;;;15.88;;
59066;SDS011;44854;50.838;4.438;2023-12-07T06:14:17;32.15;;;16.63;;
59066;SDS011;44854;50.838;4.438;2023-12-07T06:16:42;30.98;;;17.80;;
59066;SDS011;44854;50.838;4.438;2023-12-07T06:19:08;31.75;;;16.60;;
59066;SDS011;44854;50.838;4.438;2023-12-07T06:21:34;33.55;;;17.33;;
59066;SDS011;44854;50.838;4.438;2023-12-07T06:23:59;33.90;;;18.08;;
59066;SDS011;44854;50.838;4.438;2023-12-07T06:26:25;26.75;;;16.60;;
59066;SDS011;44854;50.838;4.438;2023-12-07T06:28:51;27.05;;;15.73;;
59066;SDS011;44854;50.838;4.438;2023-12-07T06:31:17;34.25;;;16.73;;
59066;SDS011;44854;50.838;4.438;2023-12-07T06:36:10;28.58;;;15.77;;
59066;SDS011;44854;50.838;4.438;2023-12-07T06:38:42;34.63;;;16.83;;
59066;SDS011;44854;50.838;4.438;2023-12-07T06:41:08;32.72;;;16.77;;
59066;SDS011;44854;50.838;4.438;2023-12-07T06:43:33;35.17;;;16.23;;
59066;SDS011;44854;50.838;4.438;2023-12-07T06:45:59;29.00;;;16.63;;
59066;SDS011;44854;50.838;4.438;2023-12-07T06:48:25;29.90;;;16.42;;
59066;SDS011;44854;50.838;4.438;2023-12-07T06:50:50;26.70;;;15.63;;
59066;SDS011;44854;50.838;4.438;2023-12-07T06:53:16;28.90;;;16.30;;
59066;SDS011;44854;50.838;4.438;2023-12-07T06:55:43;25.30;;;15.70;;
59066;SDS011;44854;50.838;4.438;2023-12-07T06:58:09;31.30;;;16.30;;
59066;SDS011;44854;50.838;4.438;2023-12-07T07:00:36;34.13;;;16.50;;
59066;SDS011;44854;50.838;4.438;2023-12-07T07:03:01;27.15;;;15.77;;
59066;SDS011;44854;50.838;4.438;2023-12-07T07:05:27;26.50;;;16.02;;
59066;SDS011;44854;50.838;4.438;2023-12-07T07:07:53;30.05;;;15.93;;
59066;SDS011;44854;50.838;4.438;2023-12-07T07:10:20;27.35;;;16.70;;
59066;SDS011;44854;50.838;4.438;2023-12-07T07:12:46;32.20;;;16.08;;
59066;SDS011;44854;50.838;4.438;2023-12-07T07:15:12;30.92;;;16.63;;
59066;SDS011;44854;50.838;4.438;2023-12-07T07:17:38;29.83;;;18.75;;
59066;SDS011;44854;50.838;4.438;2023-12-07T07:20:04;32.75;;;19.33;;
59066;SDS011;44854;50.838;4.438;2023-12-07T07:22:30;30.23;;;16.77;;
59066;SDS011;44854;50.838;4.438;2023-12-07T07:24:56;32.08;;;16.65;;
59066;SDS011;44854;50.838;4.438;2023-12-07T07:27:21;26.35;;;16.13;;
59066;SDS011;44854;50.838;4.438;2023-12-07T07:29:47;30.85;;;16.52;;
59066;SDS011;44854;50.838;4.438;2023-12-07T07:32:14;28.27;;;16.50;;
59066;SDS011;44854;50.838;4.438;2023-12-07T07:34:41;34.95;;;16.38;;
59066;SDS011;44854;50.838;4.438;2023-12-07T07:37:06;31.42;;;17.13;;
59066;SDS011;44854;50.838;4.438;2023-12-07T07:39:32;42.20;;;16.83;;
59066;SDS011;44854;50.838;4.438;2023-12-07T07:41:58;30.30;;;16.48;;
59066;SDS011;44854;50.838;4.438;2023-12-07T07:44:25;33.17;;;16.27;;
59066;SDS011;44854;50.838;4.438;2023-12-07T07:46:50;33.15;;;15.85;;
59066;SDS011;44854;50.838;4.438;2023-12-07T07:49:16;34.08;;;16.63;;
59066;SDS011;44854;50.838;4.438;2023-12-07T07:51:42;36.67;;;18.20;;
59066;SDS011;44854;50.838;4.438;2023-12-07T07:54:07;29.92;;;17.05;;
59066;SDS011;44854;50.838;4.438;2023-12-07T07:56:33;34.65;;;17.98;;
59066;SDS011;44854;50.838;4.438;2023-12-07T07:58:59;30.92;;;16.77;;
59066;SDS011;44854;50.838;4.438;2023-12-07T08:01:25;41.38;;;17.75;;
59066;SDS011;44854;50.838;4.438;2023-12-07T08:03:51;32.28;;;16.25;;
59066;SDS011;44854;50.838;4.438;2023-12-07T08:06:21;30.65;;;16.15;;
59066;SDS011;44854;50.838;4.438;2023-12-07T08:08:49;29.52;;;16.73;;
59066;SDS011;44854;50.838;4.438;2023-12-07T08:11:15;31.20;;;16.40;;
59066;SDS011;44854;50.838;4.438;2023-12-07T08:13:40;26.88;;;16.17;;
59066;SDS011;44854;50.838;4.438;2023-12-07T08:16:09;34.30;;;16.92;;
59066;SDS011;44854;50.838;4.438;2023-12-07T08:18:35;34.35;;;17.05;;
59066;SDS011;44854;50.838;4.438;2023-12-07T08:21:01;32.70;;;15.63;;
59066;SDS011;44854;50.838;4.438;2023-12-07T08:23:27;30.92;;;16.50;;
59066;SDS011;44854;50.838;4.438;2023-12-07T08:25:53;27.55;;;15.38;;
59066;SDS011;44854;50.838;4.438;2023-12-07T08:28:22;28.67;;;17.13;;
59066;SDS011;44854;50.838;4.438;2023-12-07T08:30:48;29.45;;;16.58;;
59066;SDS011;44854;50.838;4.438;2023-12-07T08:33:13;25.38;;;15.50;;
59066;SDS011;44854;50.838;4.438;2023-12-07T08:35:39;27.13;;;15.18;;
59066;SDS011;44854;50.838;4.438;2023-12-07T08:38:05;32.22;;;16.08;;
59066;SDS011;44854;50.838;4.438;2023-12-07T08:40:31;26.02;;;14.38;;
59066;SDS011;44854;50.838;4.438;2023-12-07T08:42:57;29.75;;;16.33;;
59066;SDS011;44854;50.838;4.438;2023-12-07T08:45:23;31.58;;;16.25;;
59066;SDS011;44854;50.838;4.438;2023-12-07T08:47:49;28.15;;;15.15;;
59066;SDS011;44854;50.838;4.438;2023-12-07T08:50:17;32.72;;;15.50;;
59066;SDS011;44854;50.838;4.438;2023-12-07T08:52:43;27.23;;;15.52;;
59066;SDS011;44854;50.838;4.438;2023-12-07T08:55:09;25.90;;;14.57;;
59066;SDS011;44854;50.838;4.438;2023-12-07T08:57:35;25.25;;;14.95;;
59066;SDS011;44854;50.838;4.438;2023-12-07T09:00:01;25.23;;;14.35;;
59066;SDS011;44854;50.838;4.438;2023-12-07T09:02:30;30.48;;;16.30;;
59066;SDS011;44854;50.838;4.438;2023-12-07T09:04:55;24.77;;;13.73;;
59066;SDS011;44854;50.838;4.438;2023-12-07T09:07:21;26.80;;;15.77;;
59066;SDS011;44854;50.838;4.438;2023-12-07T09:09:47;25.52;;;14.90;;
59066;SDS011;44854;50.838;4.438;2023-12-07T09:12:13;23.63;;;13.98;;
59066;SDS011;44854;50.838;4.438;2023-12-07T09:14:39;28.08;;;14.30;;
59066;SDS011;44854;50.838;4.438;2023-12-07T09:17:05;25.85;;;14.23;;
59066;SDS011;44854;50.838;4.438;2023-12-07T09:19:31;25.92;;;13.75;;
59066;SDS011;44854;50.838;4.438;2023-12-07T09:21:57;26.80;;;14.32;;
59066;SDS011;44854;50.838;4.438;2023-12-07T09:24:23;26.35;;;14.38;;
59066;SDS011;44854;50.838;4.438;2023-12-07T09:26:49;19.67;;;11.32;;
59066;SDS011;44854;50.838;4.438;2023-12-07T09:29:15;26.27;;;13.32;;
59066;SDS011;44854;50.838;4.438;2023-12-07T09:31:40;26.13;;;14.43;;
59066;SDS011;44854;50.838;4.438;2023-12-07T09:34:06;20.90;;;13.10;;
59066;SDS011;44854;50.838;4.438;2023-12-07T09:36:33;27.93;;;14.53;;
59066;SDS011;44854;50.838;4.438;2023-12-07T09:38:59;24.17;;;12.82;;
59066;SDS011;44854;50.838;4.438;2023-12-07T09:41:26;24.70;;;12.70;;
59066;SDS011;44854;50.838;4.438;2023-12-07T09:43:53;23.02;;;13.00;;
59066;SDS011;44854;50.838;4.438;2023-12-07T09:46:20;22.15;;;13.40;;
59066;SDS011;44854;50.838;4.438;2023-12-07T09:48:46;24.40;;;13.23;;
59066;SDS011;44854;50.838;4.438;2023-12-07T09:51:15;25.88;;;12.57;;
59066;SDS011;44854;50.838;4.438;2023-12-07T09:53:42;24.05;;;12.05;;
59066;SDS011;44854;50.838;4.438;2023-12-07T09:56:10;24.73;;;12.90;;
59066;SDS011;44854;50.838;4.438;2023-12-07T09:58:35;31.17;;;13.43;;
59066;SDS011;44854;50.838;4.438;2023-12-07T10:01:01;19.75;;;11.35;;
59066;SDS011;44854;50.838;4.438;2023-12-07T10:03:27;23.88;;;12.27;;
59066;SDS011;44854;50.838;4.438;2023-12-07T10:05:56;28.02;;;15.88;;
59066;SDS011;44854;50.838;4.438;2023-12-07T10:11:28;17.77;;;10.55;;
59066;SDS011;44854;50.838;4.438;2023-12-07T10:13:53;20.27;;;11.45;;
59066;SDS011;44854;50.838;4.438;2023-12-07T10:16:19;22.73;;;11.45;;
59066;SDS011;44854;50.838;4.438;2023-12-07T10:18:45;19.70;;;11.35;;
59066;SDS011;44854;50.838;4.438;2023-12-07T10:21:11;22.10;;;11.18;;
59066;SDS011;44854;50.838;4.438;2023-12-07T10:23:37;20.95;;;11.45;;
59066;SDS011;44854;50.838;4.438;2023-12-07T10:26:08;17.55;;;10.85;;
59066;SDS011;44854;50.838;4.438;2023-12-07T10:28:35;21.88;;;12.80;;
59066;SDS011;44854;50.838;4.438;2023-12-07T10:31:02;19.98;;;11.02;;
59066;SDS011;44854;50.838;4.438;2023-12-07T10:33:28;19.17;;;10.35;;
59066;SDS011;44854;50.838;4.438;2023-12-07T10:35:53;35.30;;;10.90;;
59066;SDS011;44854;50.838;4.438;2023-12-07T10:38:22;24.48;;;11.18;;
59066;SDS011;44854;50.838;4.438;2023-12-07T10:40:49;20.92;;;11.40;;
59066;SDS011;44854;50.838;4.438;2023-12-07T10:43:27;16.73;;;11.23;;
59066;SDS011;44854;50.838;4.438;2023-12-07T10:45:53;22.13;;;10.60;;
59066;SDS011;44854;50.838;4.438;2023-12-07T10:48:18;21.70;;;11.15;;
59066;SDS011;44854;50.838;4.438;2023-12-07T10:50:46;18.87;;;11.00;;
59066;SDS011;44854;50.838;4.438;2023-12-07T10:53:26;23.50;;;11.95;;
59066;SDS011;44854;50.838;4.438;2023-12-07T10:55:55;19.40;;;10.85;;
59066;SDS011;44854;50.838;4.438;2023-12-07T10:58:25;33.10;;;12.35;;
59066;SDS011;44854;50.838;4.438;2023-12-07T11:00:54;20.50;;;11.05;;
59066;SDS011;44854;50.838;4.438;2023-12-07T11:03:22;30.60;;;10.75;;
59066;SDS011;44854;50.838;4.438;2023-12-07T11:05:49;16.80;;;10.85;;
59066;SDS011;44854;50.838;4.438;2023-12-07T11:08:18;16.25;;;9.93;;
59066;SDS011;44854;50.838;4.438;2023-12-07T11:11:10;29.10;;;11.23;;
59066;SDS011;44854;50.838;4.438;2023-12-07T11:13:38;23.35;;;10.75;;
59066;SDS011;44854;50.838;4.438;2023-12-07T11:16:09;23.60;;;9.55;;
59066;SDS011;44854;50.838;4.438;2023-12-07T11:18:35;19.23;;;10.02;;
59066;SDS011;44854;50.838;4.438;2023-12-07T11:21:01;19.90;;;10.52;;
59066;SDS011;44854;50.838;4.438;2023-12-07T11:23:27;27.25;;;10.30;;
59066;SDS011;44854;50.838;4.438;2023-12-07T11:25:54;17.80;;;8.77;;
59066;SDS011;44854;50.838;4.438;2023-12-07T11:28:33;17.92;;;9.60;;
59066;SDS011;44854;50.838;4.438;2023-12-07T11:31:01;18.85;;;9.35;;
59066;SDS011;44854;50.838;4.438;2023-12-07T11:33:28;37.63;;;10.07;;
59066;SDS011;44854;50.838;4.438;2023-12-07T11:38:29;17.35;;;8.82;;
59066;SDS011;44854;50.838;4.438;2023-12-07T11:40:55;16.50;;;9.00;;
59066;SDS011;44854;50.838;4.438;2023-12-07T11:46:06;16.33;;;9.10;;
59066;SDS011;44854;50.838;4.438;2023-12-07T11:48:32;12.85;;;8.35;;
59066;SDS011;44854;50.838;4.438;2023-12-07T11:51:02;21.17;;;8.38;;
59066;SDS011;44854;50.838;4.438;2023-12-07T11:53:30;21.67;;;9.02;;
59066;SDS011;44854;50.838;4.438;2023-12-07T11:56:01;16.17;;;8.18;;
59066;SDS011;44854;50.838;4.438;2023-12-07T11:58:29;13.02;;;7.90;;
59066;SDS011;44854;50.838;4.438;2023-12-07T12:00:55;24.70;;;8.38;;
59066;SDS011;44854;50.838;4.438;2023-12-07T12:03:22;14.25;;;7.35;;
59066;SDS011;44854;50.838;4.438;2023-12-07T12:05:49;16.97;;;8.50;;
59066;SDS011;44854;50.838;4.438;2023-12-07T12:08:15;17.38;;;8.32;;
59066;SDS011;44854;50.838;4.438;2023-12-07T12:10:45;13.23;;;8.35;;
59066;SDS011;44854;50.838;4.438;2023-12-07T12:13:11;23.02;;;10.57;;
59066;SDS011;44854;50.838;4.438;2023-12-07T12:15:38;16.67;;;8.32;;
59066;SDS011;44854;50.838;4.438;2023-12-07T12:18:08;15.73;;;8.18;;
59066;SDS011;44854;50.838;4.438;2023-12-07T12:20:34;12.75;;;8.05;;
59066;SDS011;44854;50.838;4.438;2023-12-07T12:23:00;13.75;;;7.45;;
59066;SDS011;44854;50.838;4.438;2023-12-07T12:25:27;26.73;;;9.85;;
59066;SDS011;44854;50.838;4.438;2023-12-07T12:27:56;20.38;;;8.07;;
59066;SDS011;44854;50.838;4.438;2023-12-07T12:32:49;12.70;;;6.82;;
59066;SDS011;44854;50.838;4.438;2023-12-07T12:35:15;14.90;;;7.13;;
59066;SDS011;44854;50.838;4.438;2023-12-07T12:37:44;21.80;;;7.47;;
59066;SDS011;44854;50.838;4.438;2023-12-07T12:40:11;15.75;;;6.90;;
59066;SDS011;44854;50.838;4.438;2023-12-07T12:42:42;16.48;;;6.93;;
59066;SDS011;44854;50.838;4.438;2023-12-07T12:45:08;16.13;;;6.57;;
59066;SDS011;44854;50.838;4.438;2023-12-07T12:47:36;13.15;;;7.07;;
59066;SDS011;44854;50.838;4.438;2023-12-07T12:50:02;17.33;;;6.65;;
59066;SDS011;44854;50.838;4.438;2023-12-07T12:52:29;9.52;;;6.13;;
59066;SDS011;44854;50.838;4.438;2023-12-07T12:54:56;11.02;;;6.32;;
59066;SDS011;44854;50.838;4.438;2023-12-07T12:57:22;13.50;;;6.53;;
59066;SDS011;44854;50.838;4.438;2023-12-07T12:59:48;13.23;;;6.43;;
59066;SDS011;44854;50.838;4.438;2023-12-07T13:02:15;10.57;;;6.43;;
59066;SDS011;44854;50.838;4.438;2023-12-07T13:04:41;13.55;;;6.55;;
59066;SDS011;44854;50.838;4.438;2023-12-07T13:07:07;10.43;;;5.82;;
59066;SDS011;44854;50.838;4.438;2023-12-07T13:09:32;20.15;;;6.78;;
59066;SDS011;44854;50.838;4.438;2023-12-07T13:11:58;17.27;;;6.60;;
59066;SDS011;44854;50.838;4.438;2023-12-07T13:14:24;29.55;;;9.68;;
59066;SDS011;44854;50.838;4.438;2023-12-07T13:16:50;12.88;;;6.68;;
59066;SDS011;44854;50.838;4.438;2023-12-07T13:19:16;10.93;;;6.35;;
59066;SDS011;44854;50.838;4.438;2023-12-07T13:21:41;14.43;;;5.85;;
59066;SDS011;44854;50.838;4.438;2023-12-07T13:24:07;18.05;;;7.75;;
59066;SDS011;44854;50.838;4.438;2023-12-07T13:26:37;12.35;;;6.40;;
59066;SDS011;44854;50.838;4.438;2023-12-07T13:29:04;17.48;;;6.55;;
59066;SDS011;44854;50.838;4.438;2023-12-07T13:31:30;11.70;;;6.13;;
59066;SDS011;44854;50.838;4.438;2023-12-07T13:33:55;17.05;;;6.03;;
59066;SDS011;44854;50.838;4.438;2023-12-07T13:36:22;12.45;;;5.85;;
59066;SDS011;44854;50.838;4.438;2023-12-07T13:38:50;12.60;;;6.57;;
59066;SDS011;44854;50.838;4.438;2023-12-07T13:41:16;14.25;;;6.05;;
59066;SDS011;44854;50.838;4.438;2023-12-07T13:43:42;18.55;;;6.78;;
59066;SDS011;44854;50.838;4.438;2023-12-07T13:46:08;18.70;;;7.47;;
59066;SDS011;44854;50.838;4.438;2023-12-07T13:48:35;15.05;;;6.85;;
59066;SDS011;44854;50.838;4.438;2023-12-07T13:51:00;16.02;;;6.43;;
59066;SDS011;44854;50.838;4.438;2023-12-07T13:53:27;19.50;;;6.53;;
59066;SDS011;44854;50.838;4.438;2023-12-07T13:55:53;13.13;;;6.72;;
59066;SDS011;44854;50.838;4.438;2023-12-07T13:58:19;14.07;;;6.80;;
59066;SDS011;44854;50.838;4.438;2023-12-07T14:00:45;16.75;;;6.63;;
59066;SDS011;44854;50.838;4.438;2023-12-07T14:03:11;16.58;;;6.50;;
59066;SDS011;44854;50.838;4.438;2023-12-07T14:05:40;11.88;;;6.32;;
59066;SDS011;44854;50.838;4.438;2023-12-07T14:08:06;29.00;;;7.88;;
59066;SDS011;44854;50.838;4.438;2023-12-07T14:10:33;17.40;;;7.37;;
59066;SDS011;44854;50.838;4.438;2023-12-07T14:12:59;15.82;;;6.88;;
59066;SDS011;44854;50.838;4.438;2023-12-07T14:15:25;36.67;;;7.90;;
59066;SDS011;44854;50.838;4.438;2023-12-07T14:17:51;43.80;;;9.20;;
59066;SDS011;44854;50.838;4.438;2023-12-07T14:20:17;13.88;;;7.07;;
59066;SDS011;44854;50.838;4.438;2023-12-07T14:22:45;14.40;;;8.52;;
59066;SDS011;44854;50.838;4.438;2023-12-07T14:25:11;29.00;;;7.55;;
59066;SDS011;44854;50.838;4.438;2023-12-07T14:27:36;10.93;;;7.43;;
59066;SDS011;44854;50.838;4.438;2023-12-07T14:30:02;15.93;;;6.75;;
59066;SDS011;44854;50.838;4.438;2023-12-07T14:32:28;16.42;;;6.85;;
59066;SDS011;44854;50.838;4.438;2023-12-07T14:34:54;37.25;;;9.52;;
59066;SDS011;44854;50.838;4.438;2023-12-07T14:37:20;21.70;;;7.40;;